KPBF

Pine Bluff Regional Grider Field Airport

Pine Bluff, Arkansas, USA
KPBF 232335Z 2400/2424 VRB04KT P6SM SCT250 FM241500 06006KT P6SM BKN250
Issued Valid From Valid To
Oct-23 @ 23:35 UTC
(5 hours ago)
Oct-24 @ 00:00 UTC
(5 hours ago)
Oct-25 @ 00:00 UTC
(in 19 hours)
Oct-24 @ 00:00 to Oct-24 @ 15:00
KPBF 232335Z 2400/2424 VRB04KT P6SM SCT250
Wind Visibility Clouds
Variable at 4 knots Greater than 6 miles
  • Scattered at 25,000' AGL
From Oct-24 @ 15:00 to Oct-25 @ 00:00
FM241500 06006KT P6SM BKN250
Wind Visibility Clouds
60° at 6 knots Greater than 6 miles
  • Broken at 25,000' AGL
KPBF 232335Z 2400/2424 VRB04KT P6SM SCT250 FM241500 06006KT P6SM BKN250
Issued Oct-23 @ 23:35 UTC
(5 hours ago)
Valid From Oct-24 @ 00:00 UTC
(5 hours ago)
Valid To Oct-25 @ 00:00 UTC
(in 19 hours)
Oct-24 @ 00:00 - Oct-24 @ 15:00
Wind Visibility
Variable at 4 knots Greater than 6 miles
Clouds
  • Scattered at 25,000' AGL
From Oct-24 @ 15:00 - Oct-25 @ 00:00
Wind Visibility
60° at 6 knots Greater than 6 miles
Clouds
  • Broken at 25,000' AGL